Brainerd Lakes Regional Airport
KBRD : now visible

Airfield :











YOU CAN JOIN US ON...

 
LOGIN :

Register | Disclaimer

   EN    FR    IT 

 









Legend :    VFR   Marginal VFR   IFR   Intensive IFR   Very Intensive IFR
Visi :
Ceiling :
>= 8 km
>= 3000ft
5 to 8 km
1000 to 3000 ft
1500m to 5 km
500 to 1000 ft
800 to 1500m
200 to 500 ft
< 800m
< 200 ft
Symbols :   Thunderstorms  Fog  Heavy snow  Heavy precipitations  Wind > 20 kt







- Airport Elevation : 1232 ft


KBRD - Brainerd Lakes Regional

CURRENT METAR :
  • 191653Z AUTO 24008KT 10SM CLR 14/M03 A3003 RMK AO2 SLP175 T01441028

EXPIRED METARs :
  • 191553Z AUTO 26007KT 10SM CLR 13/M01 A3004 RMK AO2 SLP178 T01331006
  • 191453Z AUTO 00000KT 10SM CLR 11/00 A3003 RMK AO2 SLP176 T01110000 58001
  • 191353Z AUTO 00000KT 10SM CLR 07/00 A3004 RMK AO2 SLP180 T00720000

TAF KBRD
Valid from the 19 at 12:00 until the 20 at 12:00 UTC


191127Z 1912/2012 00000KT P6SM SKC
FM191700 26005KT P6SM SKC
FM200200 20006KT P6SM FEW250
KZMP FIR / North America



MET'MAP, your aeronautical weather chart ! - Copyright ORBIFLY December 2007 - Disclaimer

ORBIFLY MET'MAP TEAM :

Programming & Development : Alexandra Zaïnal
Concept & Development : Baudouin d'Aumeries
Co-Development & Prog : Marc-Olivier Méhu
Technical & hardware support : Manuel Goepfert

Contact : metmap@orbifly.com




SOURCES & CREDITS :

   NOAA       Earth
Advisory